Aérodrome :
LOGIN :

S'inscrire | Disclaimer

   EN    FR    IT 

 










Légende :    VFR   VFR Marginal   IFR   IFR Intensif   IFR Très Intensif
Visi : 
Plafond : 
>= 8 km
>= 3000ft
5 à 8 km
1000 à 3000 ft
1500m à 5 km
500 à 1000 ft
800 à 1500m
200 à 500 ft
< 800m
< 200 ft
Symboles :   Orages  Brouillard  Fortes neiges  Fortes précipitations  Vent > 20 kt
SIGMETs :   Divers  Orages  Givrage  Turbulence  Onde Orograph.  Cendres Volcan.







- Altitude de l'aérodrome : 84 ft
- Voir les cartes d'approche


LFBC - Cazaux

DERNIER METAR :
  • 260330Z AUTO 02008KT CAVOK 06/03 Q1012

METARs EXPIRÉS :
  • 260300Z AUTO 02009KT 9999 FEW013 OVC078 06/04 Q1012
  • 260230Z AUTO 02010KT CAVOK 07/04 Q1011
  • 260200Z AUTO 02010KT CAVOK 07/04 Q1012
  • 260130Z AUTO 02010KT 9999 -RA FEW014 BKN060 OVC084 07/04 Q1011
  • 260100Z AUTO 01010KT CAVOK 07/04 Q1011

TAF TAF LFBC
Valide du 25 à 21h jusqu'au 26 à 21h UTC


252000Z 2521/2621 01010KT 9999 BKN040
TEMPO 2521/2524 4500 -RA BKN010 BKN030
PROB40
TEMPO 2607/2618 4000 SHRA SCT020TCU SCT030
BECMG 2612/2614 32015KT
Pas de NOTAMs connus pour ce terrain.



MET'MAP, la Météo Aéronautique d'un coup d'oeil ! - Copyright ORBIFLY Décembre 2007 - Disclaimer

ORBIFLY MET'MAP TEAM :

Programmation & Développement : Alexandra Zaïnal
Conception & Développement : Baudouin d'Aumeries
Co-Programmation & Développement : Marc-Olivier Méhu
Soutien technique & logistique : Manuel Goepfert

Contact : metmap@orbifly.com




SOURCES & CREDITS :

   NOAA